createdAt,value
2019-03-11T00:03:58.457Z,100540.77
2019-03-11T00:06:27.831Z,100551.80
2019-03-11T00:08:57.194Z,100540.33
2019-03-11T00:11:26.780Z,100541.17
2019-03-11T00:13:56.455Z,100546.09
2019-03-11T00:16:25.827Z,100549.01
2019-03-11T00:18:55.732Z,100548.61
2019-03-11T00:21:25.112Z,100545.81
2019-03-11T00:23:54.767Z,100541.12
2019-03-11T00:26:24.145Z,100550.03
2019-03-11T00:28:53.997Z,100550.88
2019-03-11T00:31:23.367Z,100550.03
2019-03-11T00:33:53.336Z,100549.63
2019-03-11T00:36:22.892Z,100553.62
2019-03-11T00:38:52.269Z,100548.61
2019-03-11T00:41:21.867Z,100547.28
2019-03-11T00:43:51.243Z,100551.75
2019-03-11T00:46:21.096Z,100553.08
2019-03-11T00:48:50.467Z,100552.45
2019-03-11T00:51:20.120Z,100548.47
2019-03-11T00:53:49.798Z,100551.83
2019-03-11T00:56:19.197Z,100557.69
2019-03-11T00:58:48.837Z,100557.69
2019-03-11T01:04:14.366Z,100552.54
2019-03-11T01:06:44.222Z,100556.22
2019-03-11T01:09:13.878Z,100551.89
2019-03-11T01:12:02.633Z,100558.31
2019-03-11T01:14:31.942Z,100558.31
2019-03-11T01:17:01.318Z,100550.28
2019-03-11T01:19:31.181Z,100551.61
2019-03-11T01:22:00.544Z,100548.86
2019-03-11T01:24:30.168Z,100547.84
2019-03-11T01:26:59.519Z,100539.41
2019-03-11T01:29:29.025Z,100539.95
2019-03-11T01:31:58.380Z,100550.67
2019-03-11T01:34:28.024Z,100527.81
2019-03-11T01:37:10.110Z,100525.47
2019-03-11T01:39:39.480Z,100525.47
2019-03-11T01:42:09.150Z,100526.49
2019-03-11T01:44:38.521Z,100516.78
2019-03-11T01:47:08.128Z,100518.56
2019-03-11T01:49:37.495Z,100508.55
2019-03-11T01:52:07.294Z,100505.98
2019-03-11T01:54:36.665Z,100509.66
2019-03-11T01:57:06.254Z,100512.33
2019-03-11T01:59:35.926Z,100508.08
2019-03-11T02:02:05.277Z,100509.02
2019-03-11T02:04:36.279Z,100510.52
2019-03-11T02:07:05.629Z,100508.61
2019-03-11T02:09:35.282Z,100508.95
2019-03-11T02:12:04.638Z,100508.95
2019-03-11T02:14:34.270Z,100506.52
2019-03-11T02:17:03.625Z,100503.77
2019-03-11T02:19:33.160Z,100490.73
2019-03-11T02:22:02.521Z,100500.60
2019-03-11T02:24:31.894Z,100494.02
2019-03-11T02:27:01.262Z,100494.02
2019-03-11T02:29:32.272Z,100486.05
2019-03-11T02:32:01.635Z,100504.66
2019-03-11T02:34:31.304Z,100495.66
2019-03-11T02:37:00.934Z,100498.23
2019-03-11T02:39:30.495Z,100498.72
2019-03-11T02:41:59.859Z,100495.66
2019-03-11T02:44:29.535Z,100493.31
2019-03-11T02:46:58.892Z,100496.76
2019-03-11T02:49:28.618Z,100501.68
2019-03-11T02:51:58.570Z,100503.16
2019-03-11T02:54:28.231Z,100507.38
2019-03-11T02:57:11.339Z,100510.61
2019-03-11T02:59:40.720Z,100510.61
2019-03-11T03:02:29.206Z,100507.25
2019-03-11T03:05:18.033Z,100504.59
2019-03-11T03:08:06.799Z,100494.63
2019-03-11T03:10:36.182Z,100497.61
2019-03-11T03:13:05.545Z,100490.34
2019-03-11T03:15:34.919Z,100499.31
2019-03-11T03:18:04.529Z,100497.67
2019-03-11T03:20:33.905Z,100502.45
2019-03-11T03:23:03.555Z,100499.31
2019-03-11T03:25:34.906Z,100499.31
2019-03-11T03:28:23.097Z,100497.00
2019-03-11T03:30:52.935Z,100493.94
2019-03-11T03:33:22.585Z,100497.14
2019-03-11T03:35:52.127Z,100497.92
2019-03-11T03:38:30.650Z,100490.00
2019-03-11T03:40:58.018Z,100500.41
2019-03-11T03:43:27.641Z,100506.07
2019-03-11T03:45:58.913Z,100510.06
2019-03-11T03:48:28.653Z,100518.48
2019-03-11T03:50:58.258Z,100515.44
2019-03-11T03:53:27.616Z,100514.98
2019-03-11T03:55:57.014Z,100507.15
2019-03-11T03:58:26.616Z,100506.44
2019-03-11T04:00:56.290Z,100506.44
2019-03-11T04:03:25.821Z,100508.39
2019-03-11T04:05:55.165Z,100502.82
2019-03-11T04:08:24.763Z,100499.94
2019-03-11T04:10:54.221Z,100499.14
2019-03-11T04:13:23.647Z,100505.70
2019-03-11T04:15:53.028Z,100500.95
2019-03-11T04:21:45.892Z,100512.34
2019-03-11T04:24:15.264Z,100513.77
2019-03-11T04:26:44.933Z,100507.60
2019-03-11T04:29:14.289Z,100519.34
2019-03-11T04:31:43.953Z,100517.39
2019-03-11T04:34:13.609Z,100518.63
2019-03-11T04:36:43.111Z,100513.80
2019-03-11T04:39:12.764Z,100516.28
2019-03-11T04:41:43.091Z,100513.31
2019-03-11T04:44:12.745Z,100512.92
2019-03-11T04:46:43.418Z,100516.11
2019-03-11T04:49:13.043Z,100512.21
2019-03-11T04:51:43.149Z,100516.64
2019-03-11T04:54:12.797Z,100505.48
2019-03-11T04:56:43.191Z,100517.84
2019-03-11T05:02:15.120Z,100522.39
2019-03-11T05:04:45.086Z,100513.55
2019-03-11T05:07:14.760Z,100512.61
2019-03-11T05:09:44.164Z,100519.65
2019-03-11T05:12:13.814Z,100519.65
2019-03-11T05:14:43.323Z,100517.08
2019-03-11T05:17:12.911Z,100515.41
2019-03-11T05:19:43.160Z,100519.73
2019-03-11T05:22:12.812Z,100521.38
2019-03-11T05:24:43.290Z,100510.34
2019-03-11T05:27:12.801Z,100522.08
2019-03-11T05:29:43.203Z,100528.64
2019-03-11T05:32:12.869Z,100522.79
2019-03-11T05:37:45.221Z,100541.17
2019-03-11T05:40:54.937Z,100531.39
2019-03-11T05:43:24.291Z,100534.92
2019-03-11T05:45:53.963Z,100531.39
2019-03-11T05:48:23.322Z,100535.86
2019-03-11T05:50:54.451Z,100537.19
2019-03-11T05:53:23.941Z,100537.58
2019-03-11T05:55:53.436Z,100545.95
2019-03-11T05:58:43.485Z,100547.73
2019-03-11T06:01:13.121Z,100550.70
2019-03-11T06:03:43.407Z,100560.49
2019-03-11T06:06:13.057Z,100552.91
2019-03-11T06:08:43.312Z,100544.77
2019-03-11T06:11:13.370Z,100551.36
2019-03-11T06:13:43.410Z,100556.45
2019-03-11T06:16:13.081Z,100556.45
2019-03-11T06:21:43.374Z,100556.84
2019-03-11T06:24:14.463Z,100559.33
2019-03-11T06:26:44.134Z,100561.45
2019-03-11T06:29:13.498Z,100569.57
2019-03-11T06:31:43.541Z,100577.16
2019-03-11T06:34:13.260Z,100563.80
2019-03-11T06:36:43.489Z,100574.89
2019-03-11T06:39:13.172Z,100567.93
2019-03-11T06:41:43.584Z,100566.66
2019-03-11T06:44:13.231Z,100573.88
2019-03-11T06:46:45.886Z,100567.45
2019-03-11T06:49:20.307Z,100567.36
2019-03-11T06:51:49.683Z,100564.17
2019-03-11T06:54:19.240Z,100567.98
2019-03-11T06:56:48.619Z,100580.04
2019-03-11T06:59:18.235Z,100577.41
2019-03-11T07:01:47.587Z,100583.30
2019-03-11T07:04:17.260Z,100584.22
2019-03-11T07:06:46.951Z,100589.09
2019-03-11T07:09:16.469Z,100589.45
2019-03-11T07:11:46.147Z,100592.06
2019-03-11T07:14:15.511Z,100594.33
2019-03-11T07:16:45.466Z,100596.42
2019-03-11T07:19:14.843Z,100596.42
2019-03-11T07:21:44.513Z,100607.23
2019-03-11T07:24:13.872Z,100610.13
2019-03-11T07:26:43.705Z,100618.64
2019-03-11T07:29:13.331Z,100605.16
2019-03-11T07:31:43.701Z,100610.17
2019-03-11T07:34:13.602Z,100608.05
2019-03-11T07:36:43.830Z,100609.38
2019-03-11T07:39:13.458Z,100616.95
2019-03-11T07:41:43.752Z,100608.13
2019-03-11T07:44:13.374Z,100619.84
2019-03-11T07:46:45.590Z,100612.08
2019-03-11T07:49:33.962Z,100624.61
2019-03-11T07:52:03.616Z,100625.46
2019-03-11T07:54:36.058Z,100619.44
2019-03-11T07:57:11.065Z,100620.55
2019-03-11T07:59:49.826Z,100623.16
2019-03-11T08:02:19.489Z,100621.69
2019-03-11T08:04:48.863Z,100620.67
2019-03-11T08:07:18.562Z,100614.81
2019-03-11T08:09:47.942Z,100625.99
2019-03-11T08:12:17.834Z,100627.95
2019-03-11T08:14:47.746Z,100640.09
2019-03-11T08:17:17.132Z,100645.94
2019-03-11T08:19:46.581Z,100651.44
2019-03-11T08:22:15.964Z,100651.34
2019-03-11T08:24:45.471Z,100654.51
2019-03-11T08:27:15.098Z,100665.04
2019-03-11T08:29:44.751Z,100660.38
2019-03-11T08:32:14.135Z,100666.31
2019-03-11T08:34:43.931Z,100669.58
2019-03-11T08:37:13.638Z,100670.50
2019-03-11T08:39:43.980Z,100674.09
2019-03-11T08:42:13.698Z,100683.47
2019-03-11T08:44:44.013Z,100672.20
2019-03-11T08:47:13.993Z,100671.00
2019-03-11T08:49:43.987Z,100677.41
2019-03-11T08:52:13.646Z,100686.15
2019-03-11T08:54:43.978Z,100687.57
2019-03-11T08:57:14.969Z,100682.61
2019-03-11T08:59:44.625Z,100688.27
2019-03-11T09:02:14.248Z,100692.41
2019-03-11T09:04:44.037Z,100695.20
2019-03-11T09:07:13.749Z,100695.63
2019-03-11T09:09:44.091Z,100700.52
2019-03-11T09:12:13.813Z,100710.69
2019-03-11T09:14:44.215Z,100707.15
2019-03-11T09:17:13.706Z,100703.89
2019-03-11T09:19:44.450Z,100710.45
2019-03-11T09:22:13.826Z,100704.75
2019-03-11T09:24:44.102Z,100707.39
2019-03-11T09:27:14.020Z,100709.42
2019-03-11T09:29:44.237Z,100714.42
2019-03-11T09:32:14.231Z,100709.80
2019-03-11T09:34:44.137Z,100708.17
2019-03-11T09:37:13.770Z,100708.44
2019-03-11T09:39:44.370Z,100702.28
2019-03-11T09:42:13.956Z,100714.13
2019-03-11T09:44:44.231Z,100705.05
2019-03-11T09:47:14.223Z,100717.02
2019-03-11T09:49:44.549Z,100723.23
2019-03-11T09:52:13.922Z,100721.77
2019-03-11T09:54:44.143Z,100730.16
2019-03-11T09:57:13.517Z,100717.27
2019-03-11T09:59:44.296Z,100723.02
2019-03-11T10:02:13.951Z,100733.13
2019-03-11T10:04:44.457Z,100728.09
2019-03-11T10:07:14.085Z,100725.19
2019-03-11T10:09:44.260Z,100723.92
2019-03-11T10:12:13.960Z,100723.40
2019-03-11T10:14:44.294Z,100722.41
2019-03-11T10:17:13.949Z,100721.39
2019-03-11T10:19:44.289Z,100723.53
2019-03-11T10:22:13.949Z,100729.33
2019-03-11T10:24:44.420Z,100734.33
2019-03-11T10:27:14.022Z,100734.91
2019-03-11T10:29:44.261Z,100728.69
2019-03-11T10:32:13.922Z,100737.39
2019-03-11T10:34:44.282Z,100730.71
2019-03-11T10:37:13.949Z,100730.71
2019-03-11T10:39:47.832Z,100730.91
2019-03-11T10:42:22.083Z,100737.52
2019-03-11T10:44:51.447Z,100729.06
2019-03-11T10:47:21.068Z,100724.87
2019-03-11T10:49:50.426Z,100724.83
2019-03-11T10:52:20.429Z,100733.41
2019-03-11T10:54:50.082Z,100726.55
2019-03-11T10:57:19.444Z,100728.57
2019-03-11T10:59:49.010Z,100734.86
2019-03-11T11:02:18.386Z,100731.91
2019-03-11T11:04:48.354Z,100731.33
2019-03-11T11:07:17.726Z,100742.31
2019-03-11T11:09:47.431Z,100740.76
2019-03-11T11:12:17.040Z,100752.78
2019-03-11T11:14:46.674Z,100752.78
2019-03-11T11:17:16.102Z,100747.62
2019-03-11T11:19:45.755Z,100756.03
2019-03-11T11:22:15.332Z,100765.28
2019-03-11T11:24:44.688Z,100757.98
2019-03-11T11:27:14.561Z,100771.33
2019-03-11T11:29:44.554Z,100778.22
2019-03-11T11:32:14.185Z,100791.50
2019-03-11T11:34:44.486Z,100792.09
2019-03-11T11:37:14.142Z,100788.77
2019-03-11T11:39:44.590Z,100793.89
2019-03-11T11:42:14.547Z,100804.01
2019-03-11T11:44:44.914Z,100816.04
2019-03-11T11:47:14.290Z,100810.78
2019-03-11T11:49:44.567Z,100805.84
2019-03-11T11:52:14.209Z,100791.02
2019-03-11T11:54:43.602Z,100791.03
2019-03-11T11:57:13.243Z,100797.92
2019-03-11T11:59:53.228Z,100784.69
2019-03-11T12:02:33.036Z,100781.72
2019-03-11T12:05:02.448Z,100790.65
2019-03-11T12:07:31.852Z,100784.20
2019-03-11T12:10:01.465Z,100785.39
2019-03-11T12:12:30.847Z,100786.49
2019-03-11T12:15:00.572Z,100787.20
2019-03-11T12:17:30.479Z,100791.10
2019-03-11T12:20:00.980Z,100784.74
2019-03-11T12:22:30.588Z,100789.39
2019-03-11T12:24:59.968Z,100790.88
2019-03-11T12:27:31.576Z,100788.34
2019-03-11T12:30:39.664Z,100786.64
2019-03-11T12:33:09.027Z,100786.64
2019-03-11T12:35:38.689Z,100788.48
2019-03-11T12:38:08.051Z,100783.82
2019-03-11T12:40:38.006Z,100783.71
2019-03-11T12:43:07.657Z,100775.83
2019-03-11T12:45:37.036Z,100783.69
2019-03-11T12:48:06.794Z,100774.50
2019-03-11T12:50:36.228Z,100767.69
2019-03-11T12:53:05.669Z,100766.69
2019-03-11T12:55:35.274Z,100771.31
2019-03-11T12:58:04.878Z,100758.89
2019-03-11T13:00:34.268Z,100752.59
2019-03-11T13:03:04.080Z,100750.50
2019-03-11T13:05:53.121Z,100749.97
2019-03-11T13:08:22.690Z,100749.97
2019-03-11T13:10:52.342Z,100745.14
2019-03-11T13:13:34.577Z,100745.16
2019-03-11T13:16:03.936Z,100745.16
2019-03-11T13:21:55.199Z,100733.80
2019-03-11T13:24:37.163Z,100743.15
2019-03-11T13:27:18.674Z,100723.05
2019-03-11T13:29:48.332Z,100723.05
2019-03-11T13:32:17.859Z,100736.95
2019-03-11T13:34:47.215Z,100736.95
2019-03-11T13:37:16.798Z,100748.53
2019-03-11T13:39:46.158Z,100748.53
2019-03-11T13:42:15.755Z,100736.45
2019-03-11T13:44:45.135Z,100736.45
2019-03-11T13:47:14.814Z,100739.52
2019-03-11T13:49:45.154Z,100739.23
2019-03-11T13:52:14.822Z,100746.59
2019-03-11T13:54:45.179Z,100735.68
2019-03-11T13:57:14.872Z,100743.42
2019-03-11T13:59:45.177Z,100744.30
2019-03-11T14:02:54.898Z,100745.15
2019-03-11T14:05:24.253Z,100732.89
2019-03-11T14:07:53.923Z,100772.05
2019-03-11T14:10:23.534Z,100780.98
2019-03-11T14:12:53.115Z,100787.17
2019-03-11T14:18:57.154Z,100772.91
2019-03-11T14:21:26.864Z,100793.98
2019-03-11T14:23:58.147Z,100793.98
2019-03-11T14:26:27.510Z,100789.12
2019-03-11T14:28:57.532Z,100792.08
2019-03-11T14:31:27.345Z,100789.52
2019-03-11T14:34:09.657Z,100789.69
2019-03-11T14:36:39.015Z,100789.69
2019-03-11T14:39:08.458Z,100801.88
2019-03-11T14:41:39.722Z,100792.89
2019-03-11T14:44:21.854Z,100801.85
2019-03-11T14:46:52.314Z,100795.27
2019-03-11T14:52:45.416Z,100809.27
2019-03-11T14:55:15.153Z,100797.34
2019-03-11T14:57:45.412Z,100799.98
2019-03-11T15:00:34.311Z,100794.73
2019-03-11T15:03:03.939Z,100784.30
2019-03-11T15:05:33.303Z,100787.13
2019-03-11T15:08:02.973Z,100787.69
2019-03-11T15:10:32.340Z,100774.04
2019-03-11T15:13:02.023Z,100767.23
2019-03-11T15:18:20.311Z,100776.12
2019-03-11T15:20:49.707Z,100772.51
2019-03-11T15:23:20.941Z,100754.20
2019-03-11T15:25:59.623Z,100772.31
2019-03-11T15:28:29.072Z,100750.56
2019-03-11T15:30:58.427Z,100766.13
2019-03-11T15:33:28.034Z,100766.58
2019-03-11T15:35:57.683Z,100779.93
2019-03-11T15:38:27.529Z,100769.34
2019-03-11T15:40:57.183Z,100776.97
2019-03-11T15:43:37.442Z,100778.88
2019-03-11T15:46:07.141Z,100787.15
2019-03-11T15:49:16.555Z,100782.27
2019-03-11T15:51:46.458Z,100785.73
2019-03-11T15:54:16.169Z,100785.44
2019-03-11T15:56:45.568Z,100785.93
2019-03-11T15:59:15.270Z,100796.27
2019-03-11T16:01:45.839Z,100790.02
2019-03-11T16:04:15.473Z,100799.34
2019-03-11T16:06:45.556Z,100800.78
2019-03-11T16:09:19.333Z,100805.81
2019-03-11T16:12:05.527Z,100800.86
2019-03-11T16:14:35.241Z,100814.12
2019-03-11T16:17:04.726Z,100806.20
2019-03-11T16:19:34.221Z,100814.38
2019-03-11T16:22:23.316Z,100811.95
2019-03-11T16:24:47.501Z,100819.73
2019-03-11T16:27:17.162Z,100817.25
2019-03-11T16:29:46.847Z,100819.53
2019-03-11T16:32:16.335Z,100838.06
2019-03-11T16:34:45.735Z,100835.46
2019-03-11T16:37:15.273Z,100851.09
2019-03-11T16:39:45.685Z,100850.98
2019-03-11T16:42:15.234Z,100868.24
2019-03-11T16:44:45.586Z,100882.93
2019-03-11T16:47:14.945Z,100885.11
2019-03-11T16:49:45.753Z,100890.94
2019-03-11T16:52:15.416Z,100900.98
2019-03-11T16:54:45.689Z,100901.83
2019-03-11T16:57:15.302Z,100916.06
2019-03-11T16:59:45.626Z,100933.12
2019-03-11T17:02:15.310Z,100945.19
2019-03-11T17:04:46.070Z,100952.81
2019-03-11T17:07:15.435Z,100968.11
2019-03-11T17:09:45.676Z,100973.50
2019-03-11T17:12:16.650Z,100983.89
2019-03-11T17:14:46.334Z,100999.73
2019-03-11T17:17:15.699Z,101007.98
2019-03-11T17:19:45.799Z,101009.72
2019-03-11T17:22:27.921Z,101024.87
2019-03-11T17:24:57.583Z,101037.59
2019-03-11T17:27:26.939Z,101047.98
2019-03-11T17:29:56.917Z,101067.83
2019-03-11T17:32:26.520Z,101086.48
2019-03-11T17:34:56.155Z,101095.89
2019-03-11T17:37:25.509Z,101101.03
2019-03-11T17:39:55.251Z,101114.08
2019-03-11T17:42:24.899Z,101132.79
2019-03-11T17:44:54.570Z,101153.14
2019-03-11T17:47:23.926Z,101158.17
2019-03-11T17:49:53.590Z,101173.72
2019-03-11T17:52:22.945Z,101174.05
2019-03-11T17:54:52.609Z,101193.62
2019-03-11T17:57:22.225Z,101198.08
2019-03-11T17:59:51.852Z,101213.72
2019-03-11T18:02:21.501Z,101216.62
2019-03-11T18:04:51.217Z,101226.91
2019-03-11T18:07:22.579Z,101231.41
2019-03-11T18:09:51.927Z,101237.00
2019-03-11T18:12:21.288Z,101258.30
2019-03-11T18:14:50.992Z,101263.23
2019-03-11T18:17:33.084Z,101280.52
2019-03-11T18:20:30.109Z,101294.77
2019-03-11T18:22:59.580Z,101313.39
2019-03-11T18:25:39.864Z,101322.97
2019-03-11T18:28:09.502Z,101344.48
2019-03-11T18:30:38.884Z,101338.64
2019-03-11T18:33:08.508Z,101350.30
2019-03-11T18:35:37.851Z,101353.91
2019-03-11T18:38:07.209Z,101374.88
2019-03-11T18:40:36.708Z,101390.02
2019-03-11T18:43:06.056Z,101400.79
2019-03-11T18:45:35.706Z,101416.50
2019-03-11T18:48:05.132Z,101423.27
2019-03-11T18:50:34.740Z,101430.39
2019-03-11T18:53:04.174Z,101430.47
2019-03-11T18:55:33.778Z,101432.12
2019-03-11T18:58:03.125Z,101436.98
2019-03-11T19:00:40.222Z,101446.74
2019-03-11T19:03:09.846Z,101451.55
2019-03-11T19:05:39.197Z,101459.08
2019-03-11T19:08:09.204Z,101466.65
2019-03-11T19:10:38.899Z,101474.58
2019-03-11T19:13:09.602Z,101489.60
2019-03-11T19:15:59.078Z,101495.91
2019-03-11T19:18:28.458Z,101493.45
2019-03-11T19:20:58.205Z,101497.50
2019-03-11T19:23:27.901Z,101504.58
2019-03-11T19:25:57.368Z,101512.67
2019-03-11T19:28:26.925Z,101513.12
2019-03-11T19:30:56.760Z,101510.53
2019-03-11T19:33:46.443Z,101516.41
2019-03-11T19:36:16.152Z,101520.90
2019-03-11T19:38:46.282Z,101520.81
2019-03-11T19:41:15.935Z,101525.15
2019-03-11T19:43:46.214Z,101527.82
2019-03-11T19:46:15.976Z,101527.82
2019-03-11T19:48:46.303Z,101531.66
2019-03-11T19:51:15.938Z,101542.39
2019-03-11T19:53:46.465Z,101549.34
2019-03-11T19:56:16.026Z,101556.70
2019-03-11T19:58:46.389Z,101560.02
2019-03-11T20:01:16.323Z,101559.29
2019-03-11T20:03:46.432Z,101565.76
2019-03-11T20:06:16.081Z,101567.69
2019-03-11T20:08:46.533Z,101580.38
2019-03-11T20:11:16.170Z,101584.95
2019-03-11T20:13:46.453Z,101596.22
2019-03-11T20:16:16.074Z,101602.16
2019-03-11T20:18:46.765Z,101607.72
2019-03-11T20:21:16.242Z,101615.17
2019-03-11T20:23:46.442Z,101611.50
2019-03-11T20:26:18.485Z,101618.36
2019-03-11T20:28:52.634Z,101617.80
2019-03-11T20:31:22.159Z,101631.58
2019-03-11T20:33:51.880Z,101637.09
2019-03-11T20:36:21.626Z,101640.72
2019-03-11T20:39:01.479Z,101659.16
2019-03-11T20:41:32.498Z,101657.42
2019-03-11T20:44:04.934Z,101653.94
2019-03-11T20:46:53.464Z,101656.27
2019-03-11T20:49:23.201Z,101662.45
2019-03-11T20:51:52.537Z,101666.86
2019-03-11T20:54:22.240Z,101666.45
2019-03-11T20:56:51.873Z,101661.66
2019-03-11T20:59:21.314Z,101660.34
2019-03-11T21:01:50.821Z,101649.59
2019-03-11T21:04:20.348Z,101649.26
2019-03-11T21:06:50.027Z,101659.00
2019-03-11T21:09:19.448Z,101660.67
2019-03-11T21:11:48.806Z,101668.27
2019-03-11T21:14:18.423Z,101671.45
2019-03-11T21:16:47.763Z,101677.67
2019-03-11T21:19:17.379Z,101676.34
2019-03-11T21:21:46.811Z,101677.09
2019-03-11T21:24:16.444Z,101685.09
2019-03-11T21:26:46.754Z,101698.02
2019-03-11T21:29:16.423Z,101691.80
2019-03-11T21:31:46.806Z,101694.45
2019-03-11T21:34:16.315Z,101695.75
2019-03-11T21:36:46.703Z,101692.20
2019-03-11T21:39:16.495Z,101703.63
2019-03-11T21:41:46.872Z,101702.28
2019-03-11T21:44:16.408Z,101692.55
2019-03-11T21:46:47.067Z,101707.22
2019-03-11T21:49:16.393Z,101712.20
2019-03-11T21:51:46.804Z,101713.95
2019-03-11T21:54:16.500Z,101717.87
2019-03-11T21:56:46.915Z,101723.62
2019-03-11T21:59:16.536Z,101719.70
2019-03-11T22:01:46.877Z,101733.03
2019-03-11T22:04:16.525Z,101737.14
2019-03-11T22:06:46.892Z,101735.53
2019-03-11T22:09:17.855Z,101741.78
2019-03-11T22:11:47.527Z,101753.44
2019-03-11T22:14:16.883Z,101753.44
2019-03-11T22:16:46.902Z,101751.63
2019-03-11T22:19:16.518Z,101759.59
2019-03-11T22:21:46.881Z,101753.78
2019-03-11T22:24:16.531Z,101751.97
2019-03-11T22:26:47.816Z,101759.53
2019-03-11T22:29:17.810Z,101756.86
2019-03-11T22:31:47.463Z,101764.28
2019-03-11T22:34:16.850Z,101766.44
2019-03-11T22:36:46.936Z,101761.11
2019-03-11T22:39:16.598Z,101769.90
2019-03-11T22:41:47.023Z,101765.04
2019-03-11T22:44:16.663Z,101766.78
2019-03-11T22:46:47.222Z,101767.64
2019-03-11T22:49:16.577Z,101769.35
2019-03-11T22:51:46.990Z,101772.02
2019-03-11T22:54:16.637Z,101771.03
2019-03-11T22:56:47.401Z,101766.86
2019-03-11T22:59:17.517Z,101768.40
2019-03-11T23:01:47.596Z,101778.97
2019-03-11T23:04:16.975Z,101778.45
2019-03-11T23:06:47.089Z,101777.53
2019-03-11T23:09:16.764Z,101783.55
2019-03-11T23:11:47.099Z,101788.78
2019-03-11T23:14:16.780Z,101779.89
2019-03-11T23:16:47.115Z,101781.36
2019-03-11T23:19:16.766Z,101788.48
2019-03-11T23:21:47.670Z,101788.23
2019-03-11T23:27:11.564Z,101791.05
2019-03-11T23:29:40.928Z,101797.58
2019-03-11T23:32:10.302Z,101793.55
2019-03-11T23:34:39.830Z,101795.39
2019-03-11T23:37:09.189Z,101792.72
2019-03-11T23:39:38.575Z,101800.05
2019-03-11T23:42:07.953Z,101795.50
2019-03-11T23:44:37.342Z,101793.65
2019-03-11T23:47:06.865Z,101802.13
2019-03-11T23:49:36.241Z,101799.50
2019-03-11T23:52:05.869Z,101805.31
2019-03-11T23:54:35.240Z,101814.66
2019-03-11T23:57:04.923Z,101810.38
2019-03-11T23:59:34.306Z,101807.70
